sensor_id;sensor_type;location;lat;lon;timestamp;temperature;humidity
16271;DHT22;8243;49.048;8.396;2023-04-24T00:01:21;11.30;99.90
16271;DHT22;8243;49.048;8.396;2023-04-24T00:03:47;11.30;99.90
16271;DHT22;8243;49.048;8.396;2023-04-24T00:06:12;11.30;99.90
16271;DHT22;8243;49.048;8.396;2023-04-24T00:08:38;11.40;99.90
16271;DHT22;8243;49.048;8.396;2023-04-24T00:11:03;11.50;99.90
16271;DHT22;8243;49.048;8.396;2023-04-24T00:13:29;11.50;99.90
16271;DHT22;8243;49.048;8.396;2023-04-24T00:15:55;11.60;99.90
16271;DHT22;8243;49.048;8.396;2023-04-24T00:18:21;11.70;99.90
16271;DHT22;8243;49.048;8.396;2023-04-24T00:20:47;11.80;99.90
16271;DHT22;8243;49.048;8.396;2023-04-24T00:23:13;11.80;99.90
16271;DHT22;8243;49.048;8.396;2023-04-24T00:25:38;11.90;99.90
16271;DHT22;8243;49.048;8.396;2023-04-24T00:28:05;11.90;99.90
16271;DHT22;8243;49.048;8.396;2023-04-24T00:30:31;12.00;99.90
16271;DHT22;8243;49.048;8.396;2023-04-24T00:32:57;12.00;99.90
16271;DHT22;8243;49.048;8.396;2023-04-24T00:35:22;11.90;99.90
16271;DHT22;8243;49.048;8.396;2023-04-24T00:37:48;11.90;99.90
16271;DHT22;8243;49.048;8.396;2023-04-24T00:40:14;11.90;99.90
16271;DHT22;8243;49.048;8.396;2023-04-24T00:42:40;11.80;99.90
16271;DHT22;8243;49.048;8.396;2023-04-24T00:45:06;11.90;99.90
16271;DHT22;8243;49.048;8.396;2023-04-24T00:47:33;11.90;99.90
16271;DHT22;8243;49.048;8.396;2023-04-24T00:50:00;11.90;99.90
16271;DHT22;8243;49.048;8.396;2023-04-24T00:52:26;12.00;99.90
16271;DHT22;8243;49.048;8.396;2023-04-24T00:54:51;12.00;99.90
16271;DHT22;8243;49.048;8.396;2023-04-24T00:57:17;12.00;99.90
16271;DHT22;8243;49.048;8.396;2023-04-24T00:59:43;12.00;99.90
16271;DHT22;8243;49.048;8.396;2023-04-24T01:02:10;12.00;99.90
16271;DHT22;8243;49.048;8.396;2023-04-24T01:04:36;11.90;99.90
16271;DHT22;8243;49.048;8.396;2023-04-24T01:07:03;11.90;99.90
16271;DHT22;8243;49.048;8.396;2023-04-24T01:09:29;11.90;99.90
16271;DHT22;8243;49.048;8.396;2023-04-24T01:11:55;11.80;99.90
16271;DHT22;8243;49.048;8.396;2023-04-24T01:14:22;11.70;99.90
16271;DHT22;8243;49.048;8.396;2023-04-24T01:16:48;11.60;99.90
16271;DHT22;8243;49.048;8.396;2023-04-24T01:19:15;11.60;99.90
16271;DHT22;8243;49.048;8.396;2023-04-24T01:21:42;11.60;99.90
16271;DHT22;8243;49.048;8.396;2023-04-24T01:24:08;11.60;99.90
16271;DHT22;8243;49.048;8.396;2023-04-24T01:26:34;11.60;99.90
16271;DHT22;8243;49.048;8.396;2023-04-24T01:29:00;11.50;99.90
16271;DHT22;8243;49.048;8.396;2023-04-24T01:31:26;11.50;99.90
16271;DHT22;8243;49.048;8.396;2023-04-24T01:33:51;11.50;99.90
16271;DHT22;8243;49.048;8.396;2023-04-24T01:36:18;11.60;99.90
16271;DHT22;8243;49.048;8.396;2023-04-24T01:38:44;11.60;99.90
16271;DHT22;8243;49.048;8.396;2023-04-24T01:41:10;11.70;99.90
16271;DHT22;8243;49.048;8.396;2023-04-24T01:43:35;11.70;99.90
16271;DHT22;8243;49.048;8.396;2023-04-24T01:46:01;11.80;99.90
16271;DHT22;8243;49.048;8.396;2023-04-24T01:48:27;11.90;99.90
16271;DHT22;8243;49.048;8.396;2023-04-24T01:50:52;11.90;99.90
16271;DHT22;8243;49.048;8.396;2023-04-24T01:53:18;11.90;99.90
16271;DHT22;8243;49.048;8.396;2023-04-24T01:55:44;11.80;99.90
16271;DHT22;8243;49.048;8.396;2023-04-24T01:58:09;11.80;99.90
16271;DHT22;8243;49.048;8.396;2023-04-24T02:00:35;11.70;99.90
16271;DHT22;8243;49.048;8.396;2023-04-24T02:03:00;11.60;99.90
16271;DHT22;8243;49.048;8.396;2023-04-24T02:05:27;11.50;99.90
16271;DHT22;8243;49.048;8.396;2023-04-24T02:07:53;11.50;99.90
16271;DHT22;8243;49.048;8.396;2023-04-24T02:10:18;11.40;99.90
16271;DHT22;8243;49.048;8.396;2023-04-24T02:12:44;11.30;99.90
16271;DHT22;8243;49.048;8.396;2023-04-24T02:15:10;11.20;99.90
16271;DHT22;8243;49.048;8.396;2023-04-24T02:17:36;11.20;99.90
16271;DHT22;8243;49.048;8.396;2023-04-24T02:20:01;11.10;99.90
16271;DHT22;8243;49.048;8.396;2023-04-24T02:22:27;11.20;99.90
16271;DHT22;8243;49.048;8.396;2023-04-24T02:24:53;11.30;99.90
16271;DHT22;8243;49.048;8.396;2023-04-24T02:27:18;11.40;99.90
16271;DHT22;8243;49.048;8.396;2023-04-24T02:29:44;11.50;99.90
16271;DHT22;8243;49.048;8.396;2023-04-24T02:32:10;11.60;99.90
16271;DHT22;8243;49.048;8.396;2023-04-24T02:34:37;11.70;99.90
16271;DHT22;8243;49.048;8.396;2023-04-24T02:37:03;11.70;99.90
16271;DHT22;8243;49.048;8.396;2023-04-24T02:39:28;11.80;99.90
16271;DHT22;8243;49.048;8.396;2023-04-24T02:41:54;11.80;99.90
16271;DHT22;8243;49.048;8.396;2023-04-24T02:44:19;11.90;99.90
16271;DHT22;8243;49.048;8.396;2023-04-24T02:46:45;11.90;99.90
16271;DHT22;8243;49.048;8.396;2023-04-24T02:49:10;11.80;99.90
16271;DHT22;8243;49.048;8.396;2023-04-24T02:51:37;11.80;99.90
16271;DHT22;8243;49.048;8.396;2023-04-24T02:54:06;11.80;99.90
16271;DHT22;8243;49.048;8.396;2023-04-24T02:56:31;11.80;99.90
16271;DHT22;8243;49.048;8.396;2023-04-24T02:58:57;11.80;99.90
16271;DHT22;8243;49.048;8.396;2023-04-24T03:01:22;11.80;99.90
16271;DHT22;8243;49.048;8.396;2023-04-24T03:03:48;11.70;99.90
16271;DHT22;8243;49.048;8.396;2023-04-24T03:06:14;11.70;99.90
16271;DHT22;8243;49.048;8.396;2023-04-24T03:08:40;11.70;99.90
16271;DHT22;8243;49.048;8.396;2023-04-24T03:11:06;11.60;99.90
16271;DHT22;8243;49.048;8.396;2023-04-24T03:13:31;11.60;99.90
16271;DHT22;8243;49.048;8.396;2023-04-24T03:15:57;11.50;99.90
16271;DHT22;8243;49.048;8.396;2023-04-24T03:18:22;11.50;99.90
16271;DHT22;8243;49.048;8.396;2023-04-24T03:20:48;11.50;99.90
16271;DHT22;8243;49.048;8.396;2023-04-24T03:23:13;11.50;99.90
16271;DHT22;8243;49.048;8.396;2023-04-24T03:25:39;11.50;99.90
16271;DHT22;8243;49.048;8.396;2023-04-24T03:28:06;11.30;99.90
16271;DHT22;8243;49.048;8.396;2023-04-24T03:30:31;11.20;99.90
16271;DHT22;8243;49.048;8.396;2023-04-24T03:32:57;11.00;99.90
16271;DHT22;8243;49.048;8.396;2023-04-24T03:35:22;10.80;99.90
16271;DHT22;8243;49.048;8.396;2023-04-24T03:37:48;10.80;99.90
16271;DHT22;8243;49.048;8.396;2023-04-24T03:40:13;10.70;99.90
16271;DHT22;8243;49.048;8.396;2023-04-24T03:42:39;10.70;99.90
16271;DHT22;8243;49.048;8.396;2023-04-24T03:45:05;10.70;99.90
16271;DHT22;8243;49.048;8.396;2023-04-24T03:47:31;10.70;99.90
16271;DHT22;8243;49.048;8.396;2023-04-24T03:49:56;10.70;99.90
16271;DHT22;8243;49.048;8.396;2023-04-24T03:52:22;10.70;99.90
16271;DHT22;8243;49.048;8.396;2023-04-24T03:54:47;10.70;99.90
16271;DHT22;8243;49.048;8.396;2023-04-24T03:57:13;10.80;99.90
16271;DHT22;8243;49.048;8.396;2023-04-24T03:59:38;10.70;99.90
16271;DHT22;8243;49.048;8.396;2023-04-24T04:02:04;10.70;99.90
16271;DHT22;8243;49.048;8.396;2023-04-24T04:04:30;10.60;99.90
16271;DHT22;8243;49.048;8.396;2023-04-24T04:06:55;10.60;99.90
16271;DHT22;8243;49.048;8.396;2023-04-24T04:09:21;10.50;99.90
16271;DHT22;8243;49.048;8.396;2023-04-24T04:11:46;10.40;99.90
16271;DHT22;8243;49.048;8.396;2023-04-24T04:14:12;10.30;99.90
16271;DHT22;8243;49.048;8.396;2023-04-24T04:16:37;10.30;99.90
16271;DHT22;8243;49.048;8.396;2023-04-24T04:19:03;10.20;99.90
16271;DHT22;8243;49.048;8.396;2023-04-24T04:21:29;10.20;99.90
16271;DHT22;8243;49.048;8.396;2023-04-24T04:23:56;10.10;99.90
16271;DHT22;8243;49.048;8.396;2023-04-24T04:26:22;10.10;99.90
16271;DHT22;8243;49.048;8.396;2023-04-24T04:28:51;10.00;99.90
16271;DHT22;8243;49.048;8.396;2023-04-24T04:31:16;9.90;99.90
16271;DHT22;8243;49.048;8.396;2023-04-24T04:33:42;9.90;99.90
16271;DHT22;8243;49.048;8.396;2023-04-24T04:36:07;9.80;99.90
16271;DHT22;8243;49.048;8.396;2023-04-24T04:38:33;9.80;99.90
16271;DHT22;8243;49.048;8.396;2023-04-24T04:41:00;9.80;99.90
16271;DHT22;8243;49.048;8.396;2023-04-24T04:43:25;9.70;99.90
16271;DHT22;8243;49.048;8.396;2023-04-24T04:45:52;9.70;99.90
16271;DHT22;8243;49.048;8.396;2023-04-24T04:48:18;9.80;99.90
16271;DHT22;8243;49.048;8.396;2023-04-24T04:50:44;9.80;99.90
16271;DHT22;8243;49.048;8.396;2023-04-24T04:53:09;9.80;99.90
16271;DHT22;8243;49.048;8.396;2023-04-24T04:55:36;9.80;99.90
16271;DHT22;8243;49.048;8.396;2023-04-24T04:58:02;9.90;99.90
16271;DHT22;8243;49.048;8.396;2023-04-24T05:00:27;10.00;99.90
16271;DHT22;8243;49.048;8.396;2023-04-24T05:02:54;10.20;99.90
16271;DHT22;8243;49.048;8.396;2023-04-24T05:05:19;10.50;99.90
16271;DHT22;8243;49.048;8.396;2023-04-24T05:07:45;11.10;99.90
16271;DHT22;8243;49.048;8.396;2023-04-24T05:10:11;11.90;99.90
16271;DHT22;8243;49.048;8.396;2023-04-24T05:12:36;12.80;99.90
16271;DHT22;8243;49.048;8.396;2023-04-24T05:15:03;13.50;99.90
16271;DHT22;8243;49.048;8.396;2023-04-24T05:17:29;14.20;99.90
16271;DHT22;8243;49.048;8.396;2023-04-24T05:19:54;15.00;96.90
16271;DHT22;8243;49.048;8.396;2023-04-24T05:22:20;15.60;94.00
16271;DHT22;8243;49.048;8.396;2023-04-24T05:24:47;15.90;87.30
16271;DHT22;8243;49.048;8.396;2023-04-24T05:27:13;15.80;80.80
16271;DHT22;8243;49.048;8.396;2023-04-24T05:29:38;15.90;76.10
16271;DHT22;8243;49.048;8.396;2023-04-24T05:32:04;16.20;68.80
16271;DHT22;8243;49.048;8.396;2023-04-24T05:34:30;15.90;65.50
16271;DHT22;8243;49.048;8.396;2023-04-24T05:36:55;15.20;64.60
16271;DHT22;8243;49.048;8.396;2023-04-24T05:39:21;14.60;68.40
16271;DHT22;8243;49.048;8.396;2023-04-24T05:41:46;14.10;69.50
16271;DHT22;8243;49.048;8.396;2023-04-24T05:44:12;13.60;73.10
16271;DHT22;8243;49.048;8.396;2023-04-24T05:46:38;13.40;75.10
16271;DHT22;8243;49.048;8.396;2023-04-24T05:49:03;12.90;78.90
16271;DHT22;8243;49.048;8.396;2023-04-24T05:51:29;12.90;81.50
16271;DHT22;8243;49.048;8.396;2023-04-24T05:53:54;13.00;80.00
16271;DHT22;8243;49.048;8.396;2023-04-24T05:56:20;12.90;77.90
16271;DHT22;8243;49.048;8.396;2023-04-24T05:58:46;13.10;79.40
16271;DHT22;8243;49.048;8.396;2023-04-24T06:01:12;13.40;75.30
16271;DHT22;8243;49.048;8.396;2023-04-24T06:03:38;13.50;75.10
16271;DHT22;8243;49.048;8.396;2023-04-24T06:06:06;13.40;74.00
16271;DHT22;8243;49.048;8.396;2023-04-24T06:08:31;13.20;72.60
16271;DHT22;8243;49.048;8.396;2023-04-24T06:10:58;12.90;74.00
16271;DHT22;8243;49.048;8.396;2023-04-24T06:13:23;12.90;74.30
16271;DHT22;8243;49.048;8.396;2023-04-24T06:15:49;13.10;73.90
16271;DHT22;8243;49.048;8.396;2023-04-24T06:18:15;13.40;70.50
16271;DHT22;8243;49.048;8.396;2023-04-24T06:20:41;13.30;70.40
16271;DHT22;8243;49.048;8.396;2023-04-24T06:23:06;13.00;70.50
16271;DHT22;8243;49.048;8.396;2023-04-24T06:25:32;12.80;72.90
16271;DHT22;8243;49.048;8.396;2023-04-24T06:27:58;12.60;74.20
16271;DHT22;8243;49.048;8.396;2023-04-24T06:30:23;12.30;75.50
16271;DHT22;8243;49.048;8.396;2023-04-24T06:32:49;12.20;77.30
16271;DHT22;8243;49.048;8.396;2023-04-24T06:35:14;12.40;79.80
16271;DHT22;8243;49.048;8.396;2023-04-24T06:37:41;12.60;78.30
16271;DHT22;8243;49.048;8.396;2023-04-24T06:40:08;12.90;76.10
16271;DHT22;8243;49.048;8.396;2023-04-24T06:42:34;13.10;72.30
16271;DHT22;8243;49.048;8.396;2023-04-24T06:45:00;13.20;69.50
16271;DHT22;8243;49.048;8.396;2023-04-24T06:47:26;13.70;65.50
16271;DHT22;8243;49.048;8.396;2023-04-24T06:49:51;14.80;58.60
16271;DHT22;8243;49.048;8.396;2023-04-24T06:52:18;16.00;49.50
16271;DHT22;8243;49.048;8.396;2023-04-24T06:54:43;15.90;44.70
16271;DHT22;8243;49.048;8.396;2023-04-24T06:57:09;15.20;46.50
16271;DHT22;8243;49.048;8.396;2023-04-24T06:59:36;14.70;48.20
16271;DHT22;8243;49.048;8.396;2023-04-24T07:02:01;14.70;48.00
16271;DHT22;8243;49.048;8.396;2023-04-24T07:04:27;15.30;46.50
16271;DHT22;8243;49.048;8.396;2023-04-24T07:06:53;16.10;42.60
16271;DHT22;8243;49.048;8.396;2023-04-24T07:09:24;16.00;39.60
16271;DHT22;8243;49.048;8.396;2023-04-24T07:11:54;15.60;39.00
16271;DHT22;8243;49.048;8.396;2023-04-24T07:14:19;15.20;39.70
16271;DHT22;8243;49.048;8.396;2023-04-24T07:16:45;14.60;42.70
16271;DHT22;8243;49.048;8.396;2023-04-24T07:19:12;14.00;46.20
16271;DHT22;8243;49.048;8.396;2023-04-24T07:21:39;13.60;48.00
16271;DHT22;8243;49.048;8.396;2023-04-24T07:24:04;13.20;50.80
16271;DHT22;8243;49.048;8.396;2023-04-24T07:26:31;13.20;50.40
16271;DHT22;8243;49.048;8.396;2023-04-24T07:28:56;13.00;51.40
16271;DHT22;8243;49.048;8.396;2023-04-24T07:31:22;13.10;51.00
16271;DHT22;8243;49.048;8.396;2023-04-24T07:33:48;13.30;50.20
16271;DHT22;8243;49.048;8.396;2023-04-24T07:36:14;13.50;46.10
16271;DHT22;8243;49.048;8.396;2023-04-24T07:38:45;13.40;44.90
16271;DHT22;8243;49.048;8.396;2023-04-24T07:41:10;13.50;43.50
16271;DHT22;8243;49.048;8.396;2023-04-24T07:43:36;13.50;44.50
16271;DHT22;8243;49.048;8.396;2023-04-24T07:46:02;13.50;45.50
16271;DHT22;8243;49.048;8.396;2023-04-24T07:48:27;13.40;45.40
16271;DHT22;8243;49.048;8.396;2023-04-24T07:50:53;13.20;43.20
16271;DHT22;8243;49.048;8.396;2023-04-24T07:53:19;12.90;40.30
16271;DHT22;8243;49.048;8.396;2023-04-24T07:55:45;12.70;40.70
16271;DHT22;8243;49.048;8.396;2023-04-24T07:58:11;12.70;43.70
16271;DHT22;8243;49.048;8.396;2023-04-24T08:00:36;12.30;43.10
16271;DHT22;8243;49.048;8.396;2023-04-24T08:03:02;12.10;45.50
16271;DHT22;8243;49.048;8.396;2023-04-24T08:05:28;11.80;48.70
16271;DHT22;8243;49.048;8.396;2023-04-24T08:07:54;11.70;51.10
16271;DHT22;8243;49.048;8.396;2023-04-24T08:10:21;11.80;53.70
16271;DHT22;8243;49.048;8.396;2023-04-24T08:12:47;11.80;53.70
16271;DHT22;8243;49.048;8.396;2023-04-24T08:15:12;11.90;53.50
16271;DHT22;8243;49.048;8.396;2023-04-24T08:17:38;12.10;52.90
16271;DHT22;8243;49.048;8.396;2023-04-24T08:20:04;13.10;48.00
16271;DHT22;8243;49.048;8.396;2023-04-24T08:22:30;15.10;38.70
16271;DHT22;8243;49.048;8.396;2023-04-24T08:24:58;16.20;31.70
16271;DHT22;8243;49.048;8.396;2023-04-24T08:27:24;15.80;29.00
16271;DHT22;8243;49.048;8.396;2023-04-24T08:29:50;14.80;30.00
16271;DHT22;8243;49.048;8.396;2023-04-24T08:32:16;14.00;32.60
16271;DHT22;8243;49.048;8.396;2023-04-24T08:34:42;13.70;35.90
16271;DHT22;8243;49.048;8.396;2023-04-24T08:37:07;13.60;38.00
16271;DHT22;8243;49.048;8.396;2023-04-24T08:39:33;13.70;37.60
16271;DHT22;8243;49.048;8.396;2023-04-24T08:42:00;14.20;35.10
16271;DHT22;8243;49.048;8.396;2023-04-24T08:44:32;15.30;30.90
16271;DHT22;8243;49.048;8.396;2023-04-24T08:46:58;17.10;25.30
16271;DHT22;8243;49.048;8.396;2023-04-24T08:49:24;18.20;22.50
16271;DHT22;8243;49.048;8.396;2023-04-24T08:51:52;18.50;20.50
16271;DHT22;8243;49.048;8.396;2023-04-24T08:54:18;19.10;19.00
16271;DHT22;8243;49.048;8.396;2023-04-24T08:56:44;17.80;19.90
16271;DHT22;8243;49.048;8.396;2023-04-24T08:59:10;17.00;20.60
16271;DHT22;8243;49.048;8.396;2023-04-24T09:01:37;16.40;22.30
16271;DHT22;8243;49.048;8.396;2023-04-24T09:04:07;16.00;23.20
16271;DHT22;8243;49.048;8.396;2023-04-24T09:06:35;15.30;22.80
16271;DHT22;8243;49.048;8.396;2023-04-24T09:09:02;14.50;25.40
16271;DHT22;8243;49.048;8.396;2023-04-24T09:11:30;14.20;27.90
16271;DHT22;8243;49.048;8.396;2023-04-24T09:13:57;14.00;29.70
16271;DHT22;8243;49.048;8.396;2023-04-24T09:16:25;13.70;30.80
16271;DHT22;8243;49.048;8.396;2023-04-24T09:18:51;13.30;29.00
16271;DHT22;8243;49.048;8.396;2023-04-24T09:21:16;13.20;29.60
16271;DHT22;8243;49.048;8.396;2023-04-24T09:23:42;12.80;30.00
16271;DHT22;8243;49.048;8.396;2023-04-24T09:26:09;12.60;31.10
16271;DHT22;8243;49.048;8.396;2023-04-24T09:28:37;12.50;32.70
16271;DHT22;8243;49.048;8.396;2023-04-24T09:31:14;12.40;32.90
16271;DHT22;8243;49.048;8.396;2023-04-24T09:36:36;12.50;33.50
16271;DHT22;8243;49.048;8.396;2023-04-24T09:39:06;12.50;31.60
16271;DHT22;8243;49.048;8.396;2023-04-24T09:41:33;12.50;31.40
16271;DHT22;8243;49.048;8.396;2023-04-24T09:44:18;12.50;32.50
16271;DHT22;8243;49.048;8.396;2023-04-24T09:46:49;12.60;31.50
16271;DHT22;8243;49.048;8.396;2023-04-24T09:49:16;12.60;30.70
16271;DHT22;8243;49.048;8.396;2023-04-24T09:51:45;12.80;29.60
16271;DHT22;8243;49.048;8.396;2023-04-24T09:54:20;13.10;29.60
16271;DHT22;8243;49.048;8.396;2023-04-24T09:56:48;13.50;28.30
16271;DHT22;8243;49.048;8.396;2023-04-24T09:59:16;13.80;26.70
16271;DHT22;8243;49.048;8.396;2023-04-24T10:01:41;14.10;25.60
16271;DHT22;8243;49.048;8.396;2023-04-24T10:04:20;14.50;25.20
16271;DHT22;8243;49.048;8.396;2023-04-24T10:06:48;14.80;23.70
16271;DHT22;8243;49.048;8.396;2023-04-24T10:09:15;15.00;23.40
16271;DHT22;8243;49.048;8.396;2023-04-24T10:11:43;14.70;23.20
16271;DHT22;8243;49.048;8.396;2023-04-24T10:14:19;14.70;24.00
16271;DHT22;8243;49.048;8.396;2023-04-24T10:16:46;14.50;24.20
16271;DHT22;8243;49.048;8.396;2023-04-24T10:19:15;14.10;24.10
16271;DHT22;8243;49.048;8.396;2023-04-24T10:21:44;13.70;25.60
16271;DHT22;8243;49.048;8.396;2023-04-24T10:24:19;13.40;26.40
16271;DHT22;8243;49.048;8.396;2023-04-24T10:26:47;13.30;27.50
16271;DHT22;8243;49.048;8.396;2023-04-24T10:29:16;13.10;27.70
16271;DHT22;8243;49.048;8.396;2023-04-24T10:31:42;13.00;28.60
16271;DHT22;8243;49.048;8.396;2023-04-24T10:34:11;12.80;29.90
16271;DHT22;8243;49.048;8.396;2023-04-24T10:36:41;12.80;29.80
16271;DHT22;8243;49.048;8.396;2023-04-24T10:39:11;12.70;30.50
16271;DHT22;8243;49.048;8.396;2023-04-24T10:41:38;12.60;32.20
16271;DHT22;8243;49.048;8.396;2023-04-24T10:44:12;12.60;34.50
16271;DHT22;8243;49.048;8.396;2023-04-24T10:46:39;12.70;34.00
16271;DHT22;8243;49.048;8.396;2023-04-24T10:49:08;12.80;32.40
16271;DHT22;8243;49.048;8.396;2023-04-24T10:51:53;13.00;32.40
16271;DHT22;8243;49.048;8.396;2023-04-24T10:54:36;13.10;30.00
16271;DHT22;8243;49.048;8.396;2023-04-24T10:59:44;13.80;29.50
16271;DHT22;8243;49.048;8.396;2023-04-24T11:02:10;13.90;28.10
16271;DHT22;8243;49.048;8.396;2023-04-24T11:04:36;13.90;27.90
16271;DHT22;8243;49.048;8.396;2023-04-24T11:07:05;13.70;28.50
16271;DHT22;8243;49.048;8.396;2023-04-24T11:09:31;13.60;28.70
16271;DHT22;8243;49.048;8.396;2023-04-24T11:17:35;13.20;43.30
16271;DHT22;8243;49.048;8.396;2023-04-24T11:20:10;13.10;44.40
16271;DHT22;8243;49.048;8.396;2023-04-24T11:22:38;13.20;42.50
16271;DHT22;8243;49.048;8.396;2023-04-24T11:25:05;13.10;39.90
16271;DHT22;8243;49.048;8.396;2023-04-24T11:27:39;13.10;40.00
16271;DHT22;8243;49.048;8.396;2023-04-24T11:30:06;12.90;38.50
16271;DHT22;8243;49.048;8.396;2023-04-24T11:32:42;12.70;39.00
16271;DHT22;8243;49.048;8.396;2023-04-24T11:35:19;12.80;41.30
16271;DHT22;8243;49.048;8.396;2023-04-24T11:37:48;12.90;39.80
16271;DHT22;8243;49.048;8.396;2023-04-24T11:40:18;13.50;39.30
16271;DHT22;8243;49.048;8.396;2023-04-24T11:42:47;14.50;35.40
16271;DHT22;8243;49.048;8.396;2023-04-24T11:45:14;15.00;33.10
16271;DHT22;8243;49.048;8.396;2023-04-24T11:47:41;15.30;29.00
16271;DHT22;8243;49.048;8.396;2023-04-24T11:50:09;14.70;28.20
16271;DHT22;8243;49.048;8.396;2023-04-24T11:52:40;14.20;29.10
16271;DHT22;8243;49.048;8.396;2023-04-24T11:57:48;14.20;29.10
16271;DHT22;8243;49.048;8.396;2023-04-24T12:02:44;15.30;27.00
16271;DHT22;8243;49.048;8.396;2023-04-24T12:05:12;15.30;26.00
16271;DHT22;8243;49.048;8.396;2023-04-24T12:07:44;15.20;26.20
16271;DHT22;8243;49.048;8.396;2023-04-24T12:10:09;15.80;25.30
16271;DHT22;8243;49.048;8.396;2023-04-24T12:12:35;16.10;24.20
16271;DHT22;8243;49.048;8.396;2023-04-24T12:15:01;16.10;24.20
16271;DHT22;8243;49.048;8.396;2023-04-24T12:17:32;15.90;23.10
16271;DHT22;8243;49.048;8.396;2023-04-24T12:19:59;15.70;23.80
16271;DHT22;8243;49.048;8.396;2023-04-24T12:22:26;15.30;24.70
16271;DHT22;8243;49.048;8.396;2023-04-24T12:25:04;15.10;25.30
16271;DHT22;8243;49.048;8.396;2023-04-24T12:27:31;15.10;25.80
16271;DHT22;8243;49.048;8.396;2023-04-24T12:29:59;15.60;25.30
16271;DHT22;8243;49.048;8.396;2023-04-24T12:32:25;16.10;23.90
16271;DHT22;8243;49.048;8.396;2023-04-24T12:34:52;16.10;22.40
16271;DHT22;8243;49.048;8.396;2023-04-24T12:37:18;15.80;22.30
16271;DHT22;8243;49.048;8.396;2023-04-24T12:40:00;15.80;22.10
16271;DHT22;8243;49.048;8.396;2023-04-24T12:42:27;15.40;23.00
16271;DHT22;8243;49.048;8.396;2023-04-24T12:44:58;15.40;23.70
16271;DHT22;8243;49.048;8.396;2023-04-24T12:47:28;15.50;23.50
16271;DHT22;8243;49.048;8.396;2023-04-24T12:49:54;15.50;23.70
16271;DHT22;8243;49.048;8.396;2023-04-24T12:52:22;15.50;23.20
16271;DHT22;8243;49.048;8.396;2023-04-24T12:54:49;15.40;22.20
16271;DHT22;8243;49.048;8.396;2023-04-24T12:57:14;15.50;22.70
16271;DHT22;8243;49.048;8.396;2023-04-24T12:59:40;15.70;22.60
16271;DHT22;8243;49.048;8.396;2023-04-24T13:02:06;15.60;21.10
16271;DHT22;8243;49.048;8.396;2023-04-24T13:04:32;15.40;20.20
16271;DHT22;8243;49.048;8.396;2023-04-24T13:06:58;15.30;20.60
16271;DHT22;8243;49.048;8.396;2023-04-24T13:09:23;15.30;20.50
16271;DHT22;8243;49.048;8.396;2023-04-24T13:11:50;15.30;19.70
16271;DHT22;8243;49.048;8.396;2023-04-24T13:14:15;15.20;19.90
16271;DHT22;8243;49.048;8.396;2023-04-24T13:16:41;15.00;20.10
16271;DHT22;8243;49.048;8.396;2023-04-24T13:19:07;15.10;19.90
16271;DHT22;8243;49.048;8.396;2023-04-24T13:21:32;15.40;20.30
16271;DHT22;8243;49.048;8.396;2023-04-24T13:23:58;15.60;19.80
16271;DHT22;8243;49.048;8.396;2023-04-24T13:26:24;15.40;19.50
16271;DHT22;8243;49.048;8.396;2023-04-24T13:28:50;15.50;20.10
16271;DHT22;8243;49.048;8.396;2023-04-24T13:31:15;15.70;19.70
16271;DHT22;8243;49.048;8.396;2023-04-24T13:33:42;15.60;19.40
16271;DHT22;8243;49.048;8.396;2023-04-24T13:36:08;15.40;19.80
16271;DHT22;8243;49.048;8.396;2023-04-24T13:38:34;15.40;19.70
16271;DHT22;8243;49.048;8.396;2023-04-24T13:41:00;15.30;20.10
16271;DHT22;8243;49.048;8.396;2023-04-24T13:43:25;15.20;19.70
16271;DHT22;8243;49.048;8.396;2023-04-24T13:45:51;15.10;19.90
16271;DHT22;8243;49.048;8.396;2023-04-24T13:48:17;15.00;19.80
16271;DHT22;8243;49.048;8.396;2023-04-24T13:50:43;15.20;19.40
16271;DHT22;8243;49.048;8.396;2023-04-24T13:53:09;15.10;18.50
16271;DHT22;8243;49.048;8.396;2023-04-24T13:55:35;15.10;18.40
16271;DHT22;8243;49.048;8.396;2023-04-24T13:58:01;15.00;18.30
16271;DHT22;8243;49.048;8.396;2023-04-24T14:00:28;15.00;17.90
16271;DHT22;8243;49.048;8.396;2023-04-24T14:02:53;15.00;18.70
16271;DHT22;8243;49.048;8.396;2023-04-24T14:05:19;15.10;19.00
16271;DHT22;8243;49.048;8.396;2023-04-24T14:07:46;15.30;19.40
16271;DHT22;8243;49.048;8.396;2023-04-24T14:10:11;15.60;19.00
16271;DHT22;8243;49.048;8.396;2023-04-24T14:12:37;15.90;19.00
16271;DHT22;8243;49.048;8.396;2023-04-24T14:15:03;16.30;18.50
16271;DHT22;8243;49.048;8.396;2023-04-24T14:17:30;16.30;17.80
16271;DHT22;8243;49.048;8.396;2023-04-24T14:19:56;16.00;17.50
16271;DHT22;8243;49.048;8.396;2023-04-24T14:22:22;15.60;18.30
16271;DHT22;8243;49.048;8.396;2023-04-24T14:24:48;15.50;18.60
16271;DHT22;8243;49.048;8.396;2023-04-24T14:27:13;15.50;20.30
16271;DHT22;8243;49.048;8.396;2023-04-24T14:29:39;15.60;20.90
16271;DHT22;8243;49.048;8.396;2023-04-24T14:32:05;15.50;21.80
16271;DHT22;8243;49.048;8.396;2023-04-24T14:34:30;15.60;22.40
16271;DHT22;8243;49.048;8.396;2023-04-24T14:36:56;15.40;22.20
16271;DHT22;8243;49.048;8.396;2023-04-24T14:39:21;15.20;22.10
16271;DHT22;8243;49.048;8.396;2023-04-24T14:41:47;14.90;22.20
16271;DHT22;8243;49.048;8.396;2023-04-24T14:44:13;14.60;23.10
16271;DHT22;8243;49.048;8.396;2023-04-24T14:46:38;14.40;24.30
16271;DHT22;8243;49.048;8.396;2023-04-24T14:49:04;14.40;25.50
16271;DHT22;8243;49.048;8.396;2023-04-24T14:51:30;14.60;26.60
16271;DHT22;8243;49.048;8.396;2023-04-24T14:53:56;14.50;25.60
16271;DHT22;8243;49.048;8.396;2023-04-24T14:56:23;14.60;26.30
16271;DHT22;8243;49.048;8.396;2023-04-24T14:58:48;14.80;25.30
16271;DHT22;8243;49.048;8.396;2023-04-24T15:01:14;15.00;24.20
16271;DHT22;8243;49.048;8.396;2023-04-24T15:03:39;14.90;25.00
16271;DHT22;8243;49.048;8.396;2023-04-24T15:06:05;14.90;24.40
16271;DHT22;8243;49.048;8.396;2023-04-24T15:08:31;15.10;24.50
16271;DHT22;8243;49.048;8.396;2023-04-24T15:10:56;15.00;24.00
16271;DHT22;8243;49.048;8.396;2023-04-24T15:13:22;15.00;23.80
16271;DHT22;8243;49.048;8.396;2023-04-24T15:15:48;14.90;23.30
16271;DHT22;8243;49.048;8.396;2023-04-24T15:18:13;14.90;24.00
16271;DHT22;8243;49.048;8.396;2023-04-24T15:20:39;14.60;23.80
16271;DHT22;8243;49.048;8.396;2023-04-24T15:23:09;14.40;24.20
16271;DHT22;8243;49.048;8.396;2023-04-24T15:25:35;14.30;24.50
16271;DHT22;8243;49.048;8.396;2023-04-24T15:28:00;14.20;25.00
16271;DHT22;8243;49.048;8.396;2023-04-24T15:30:27;14.10;25.20
16271;DHT22;8243;49.048;8.396;2023-04-24T15:32:52;14.00;25.50
16271;DHT22;8243;49.048;8.396;2023-04-24T15:35:18;14.00;26.10
16271;DHT22;8243;49.048;8.396;2023-04-24T15:37:44;14.00;25.70
16271;DHT22;8243;49.048;8.396;2023-04-24T15:40:10;14.00;26.20
16271;DHT22;8243;49.048;8.396;2023-04-24T15:42:38;14.10;26.90
16271;DHT22;8243;49.048;8.396;2023-04-24T15:45:04;14.10;26.70
16271;DHT22;8243;49.048;8.396;2023-04-24T15:47:31;14.10;26.40
16271;DHT22;8243;49.048;8.396;2023-04-24T15:49:57;14.10;27.40
16271;DHT22;8243;49.048;8.396;2023-04-24T15:52:23;14.00;27.50
16271;DHT22;8243;49.048;8.396;2023-04-24T15:54:48;13.90;27.30
16271;DHT22;8243;49.048;8.396;2023-04-24T15:57:14;13.80;28.30
16271;DHT22;8243;49.048;8.396;2023-04-24T15:59:40;13.70;30.70